createdAt,value
2023-02-02T00:00:56.767Z,1
2023-02-02T00:02:00.090Z,1
2023-02-02T00:03:02.355Z,0.9
2023-02-02T00:04:04.713Z,0.8
2023-02-02T00:05:06.993Z,0.7
2023-02-02T00:06:10.265Z,1
2023-02-02T00:07:13.570Z,0.8
2023-02-02T00:08:16.829Z,0.7
2023-02-02T00:09:19.161Z,0.8
2023-02-02T00:10:21.447Z,0.7
2023-02-02T00:11:24.775Z,1
2023-02-02T00:12:28.048Z,0.9
2023-02-02T00:13:31.379Z,0.9
2023-02-02T00:14:34.830Z,1
2023-02-02T00:15:38.158Z,0.7
2023-02-02T00:16:41.398Z,0.8
2023-02-02T00:17:44.740Z,0.8
2023-02-02T00:18:47.987Z,0.9
2023-02-02T00:19:51.370Z,0.8
2023-02-02T00:20:54.579Z,0.8
2023-02-02T00:21:57.963Z,0.8
2023-02-02T00:23:01.139Z,0.7
2023-02-02T00:24:03.522Z,0.8
2023-02-02T00:25:06.796Z,0.7
2023-02-02T00:26:10.070Z,0.7
2023-02-02T00:27:13.348Z,0.8
2023-02-02T00:28:16.631Z,0.9
2023-02-02T00:29:19.969Z,0.7
2023-02-02T00:30:23.276Z,0.7
2023-02-02T00:31:26.502Z,0.8
2023-02-02T00:32:28.848Z,0.8
2023-02-02T00:33:31.121Z,0.8
2023-02-02T00:34:33.456Z,0.8
2023-02-02T00:35:35.750Z,1
2023-02-02T00:36:39.045Z,0.8
2023-02-02T00:37:42.333Z,0.9
2023-02-02T00:38:45.624Z,1.1
2023-02-02T00:39:48.967Z,0.9
2023-02-02T00:40:52.218Z,1
2023-02-02T00:41:55.522Z,1
2023-02-02T00:42:58.797Z,1
2023-02-02T00:44:02.090Z,0.9
2023-02-02T00:45:05.445Z,1
2023-02-02T00:46:08.650Z,0.9
2023-02-02T00:47:11.964Z,1
2023-02-02T00:48:15.290Z,0.9
2023-02-02T00:49:17.583Z,0.9
2023-02-02T00:50:20.852Z,1
2023-02-02T00:51:24.231Z,1.1
2023-02-02T00:52:27.436Z,1
2023-02-02T00:53:30.715Z,1.1
2023-02-02T00:54:33.997Z,0.9
2023-02-02T00:55:38.040Z,0.8
2023-02-02T00:56:40.351Z,1
2023-02-02T00:57:42.662Z,1
2023-02-02T00:58:45.955Z,1
2023-02-02T00:59:48.264Z,0.8
2023-02-02T01:00:50.650Z,0.8
2023-02-02T01:01:53.890Z,0.9
2023-02-02T01:02:57.156Z,0.9
2023-02-02T01:04:00.435Z,0.8
2023-02-02T01:05:03.745Z,1
2023-02-02T01:06:07.032Z,1.1
2023-02-02T01:07:10.343Z,1.1
2023-02-02T01:08:13.622Z,1
2023-02-02T01:09:16.898Z,1.3
2023-02-02T01:10:20.189Z,1.2
2023-02-02T01:11:23.482Z,1.2
2023-02-02T01:12:26.791Z,1.3
2023-02-02T01:13:30.075Z,1.6
2023-02-02T01:14:32.377Z,1.5
2023-02-02T01:15:35.682Z,1.3
2023-02-02T01:16:38.957Z,1.5
2023-02-02T01:17:42.271Z,1.1
2023-02-02T01:18:45.549Z,1.2
2023-02-02T01:19:48.851Z,1.5
2023-02-02T01:20:52.145Z,1.5
2023-02-02T01:21:54.446Z,1.3
2023-02-02T01:22:56.762Z,1.5
2023-02-02T01:23:59.074Z,1.5
2023-02-02T01:25:01.368Z,1.1
2023-02-02T01:26:04.668Z,1.3
2023-02-02T01:27:08.045Z,1.5
2023-02-02T01:28:11.250Z,1.3
2023-02-02T01:29:14.539Z,1.3
2023-02-02T01:30:17.883Z,1.1
2023-02-02T01:31:21.252Z,1.4
2023-02-02T01:32:24.533Z,1.4
2023-02-02T01:33:27.707Z,1.2
2023-02-02T01:34:31.005Z,1.1
2023-02-02T01:35:34.309Z,1.3
2023-02-02T01:36:38.527Z,1.3
2023-02-02T01:37:41.891Z,1.3
2023-02-02T01:38:44.116Z,1.2
2023-02-02T01:39:47.405Z,1.3
2023-02-02T01:40:50.728Z,1.2
2023-02-02T01:41:53.999Z,1
2023-02-02T01:42:57.323Z,1.1
2023-02-02T01:44:00.635Z,1.2
2023-02-02T01:45:03.879Z,1.2
2023-02-02T01:46:06.207Z,1.2
2023-02-02T01:47:08.505Z,1.3
2023-02-02T01:48:10.809Z,1.2
2023-02-02T01:49:13.137Z,1.3
2023-02-02T01:50:16.414Z,1.1
2023-02-02T01:51:19.704Z,1.5
2023-02-02T01:52:23.006Z,1.2
2023-02-02T01:53:26.306Z,1.2
2023-02-02T01:54:29.572Z,1.1
2023-02-02T01:55:32.861Z,1.4
2023-02-02T01:56:36.192Z,1.1
2023-02-02T01:57:39.455Z,1.2
2023-02-02T01:58:42.748Z,1.5
2023-02-02T01:59:46.031Z,1.5
2023-02-02T02:00:49.351Z,1.1
2023-02-02T02:01:52.735Z,1.4
2023-02-02T02:02:54.914Z,1.3
2023-02-02T02:03:58.267Z,1.3
2023-02-02T02:05:01.500Z,1.3
2023-02-02T02:06:04.820Z,1.4
2023-02-02T02:07:08.086Z,1.2
2023-02-02T02:08:11.409Z,1.3
2023-02-02T02:09:14.669Z,1.3
2023-02-02T02:10:16.988Z,1.3
2023-02-02T02:11:19.298Z,1.2
2023-02-02T02:12:22.579Z,1.2
2023-02-02T02:13:24.921Z,1.1
2023-02-02T02:14:27.213Z,1.1
2023-02-02T02:15:30.508Z,1.5
2023-02-02T02:16:33.793Z,1.1
2023-02-02T02:17:37.073Z,1.3
2023-02-02T02:18:40.373Z,1.2
2023-02-02T02:19:43.654Z,1.4
2023-02-02T02:20:46.959Z,1.3
2023-02-02T02:21:50.330Z,1.3
2023-02-02T02:22:53.640Z,1.1
2023-02-02T02:23:56.837Z,1.2
2023-02-02T02:25:00.136Z,1.3
2023-02-02T02:26:03.444Z,1.2
2023-02-02T02:27:06.700Z,1
2023-02-02T02:28:09.040Z,1.2
2023-02-02T02:29:12.319Z,1.2
2023-02-02T02:30:15.594Z,1.1
2023-02-02T02:31:18.891Z,1.1
2023-02-02T02:32:22.207Z,1.2
2023-02-02T02:33:25.477Z,1.2
2023-02-02T02:34:28.787Z,1.2
2023-02-02T02:35:31.075Z,0.9
2023-02-02T02:36:33.386Z,1.2
2023-02-02T02:37:36.685Z,1.2
2023-02-02T02:38:39.038Z,1.1
2023-02-02T02:39:41.321Z,1.2
2023-02-02T02:40:44.595Z,1.3
2023-02-02T02:41:47.901Z,1.2
2023-02-02T02:42:51.222Z,1
2023-02-02T02:43:54.485Z,1.2
2023-02-02T02:44:57.775Z,1.2
2023-02-02T02:46:01.057Z,1
2023-02-02T02:47:04.349Z,1.1
2023-02-02T02:48:07.649Z,1.1
2023-02-02T02:49:10.942Z,1
2023-02-02T02:50:14.231Z,1.1
2023-02-02T02:51:17.521Z,1.2
2023-02-02T02:52:20.806Z,1.1
2023-02-02T02:53:23.177Z,1.2
2023-02-02T02:54:26.407Z,1.3
2023-02-02T02:55:29.691Z,1.2
2023-02-02T02:56:33.003Z,1.4
2023-02-02T02:57:36.360Z,1.1
2023-02-02T02:58:39.571Z,1.1
2023-02-02T02:59:42.859Z,1
2023-02-02T03:00:45.226Z,1.1
2023-02-02T03:01:47.496Z,1
2023-02-02T03:02:49.819Z,1.1
2023-02-02T03:03:52.118Z,1.1
2023-02-02T03:04:55.413Z,1.2
2023-02-02T03:05:58.696Z,1.1
2023-02-02T03:07:01.995Z,1.1
2023-02-02T03:08:05.276Z,1.3
2023-02-02T03:09:08.571Z,1.2
2023-02-02T03:10:11.862Z,1.1
2023-02-02T03:11:15.146Z,1.1
2023-02-02T03:12:18.440Z,1.3
2023-02-02T03:13:21.812Z,1
2023-02-02T03:14:25.009Z,1.1
2023-02-02T03:15:28.362Z,1.2
2023-02-02T03:16:31.613Z,1.2
2023-02-02T03:17:33.928Z,1
2023-02-02T03:18:37.211Z,1.1
2023-02-02T03:19:40.509Z,1.1
2023-02-02T03:20:43.798Z,1.2
2023-02-02T03:21:47.092Z,1
2023-02-02T03:22:50.377Z,1.2
2023-02-02T03:23:53.669Z,1
2023-02-02T03:24:56.965Z,1
2023-02-02T03:26:00.279Z,1.2
2023-02-02T03:27:03.540Z,1.1
2023-02-02T03:28:06.859Z,1.1
2023-02-02T03:29:10.162Z,1.2
2023-02-02T03:30:13.458Z,1.1
2023-02-02T03:31:15.735Z,1.1
2023-02-02T03:32:19.025Z,1
2023-02-02T03:33:22.302Z,0.8
2023-02-02T03:34:24.658Z,1
2023-02-02T03:35:27.922Z,1.1
2023-02-02T03:36:30.278Z,1.1
2023-02-02T03:37:32.530Z,1.1
2023-02-02T03:38:34.842Z,1
2023-02-02T03:39:37.159Z,1
2023-02-02T03:40:40.442Z,1.1
2023-02-02T03:41:43.750Z,1.1
2023-02-02T03:42:47.060Z,1.1
2023-02-02T03:43:50.333Z,1.1
2023-02-02T03:44:53.663Z,1
2023-02-02T03:45:56.950Z,1.1
2023-02-02T03:47:00.220Z,1
2023-02-02T03:48:03.505Z,1.1
2023-02-02T03:49:06.801Z,1
2023-02-02T03:50:10.067Z,0.9
2023-02-02T03:51:13.375Z,1
2023-02-02T03:52:16.669Z,1
2023-02-02T03:53:18.978Z,0.9
2023-02-02T03:54:22.268Z,1
2023-02-02T03:55:25.548Z,0.9
2023-02-02T03:56:28.847Z,1.1
2023-02-02T03:57:32.150Z,1
2023-02-02T03:58:36.220Z,1
2023-02-02T03:59:39.506Z,1
2023-02-02T04:00:41.825Z,0.9
2023-02-02T04:01:44.120Z,0.9
2023-02-02T04:02:47.411Z,1
2023-02-02T04:03:50.728Z,0.9
2023-02-02T04:04:53.041Z,0.9
2023-02-02T04:05:55.312Z,1
2023-02-02T04:06:58.622Z,1
2023-02-02T04:08:01.917Z,0.8
2023-02-02T04:09:05.201Z,0.9
2023-02-02T04:10:08.522Z,1
2023-02-02T04:11:11.806Z,1
2023-02-02T04:12:15.074Z,0.9
2023-02-02T04:13:18.377Z,0.9
2023-02-02T04:14:21.665Z,0.9
2023-02-02T04:15:24.986Z,0.9
2023-02-02T04:16:28.243Z,0.8
2023-02-02T04:17:31.625Z,0.9
2023-02-02T04:18:34.913Z,1
2023-02-02T04:19:37.177Z,1
2023-02-02T04:20:40.448Z,0.9
2023-02-02T04:21:43.714Z,0.9
2023-02-02T04:22:47.011Z,1
2023-02-02T04:23:50.326Z,0.8
2023-02-02T04:24:53.597Z,0.9
2023-02-02T04:25:56.922Z,0.9
2023-02-02T04:26:59.295Z,0.9
2023-02-02T04:28:01.505Z,1.3
2023-02-02T04:29:03.835Z,0.8
2023-02-02T04:30:06.133Z,0.9
2023-02-02T04:31:09.438Z,0.9
2023-02-02T04:32:12.768Z,0.9
2023-02-02T04:33:15.990Z,1.1
2023-02-02T04:34:19.320Z,0.8
2023-02-02T04:35:22.630Z,0.8
2023-02-02T04:36:25.880Z,0.9
2023-02-02T04:37:29.176Z,0.8
2023-02-02T04:38:32.489Z,0.8
2023-02-02T04:39:36.449Z,0.8
2023-02-02T04:40:39.760Z,0.9
2023-02-02T04:41:43.013Z,0.7
2023-02-02T04:42:46.313Z,0.7
2023-02-02T04:43:48.614Z,0.9
2023-02-02T04:44:51.920Z,0.7
2023-02-02T04:45:55.198Z,0.7
2023-02-02T04:46:58.501Z,0.8
2023-02-02T04:48:01.787Z,0.6
2023-02-02T04:49:05.077Z,0.6
2023-02-02T04:50:08.371Z,0.7
2023-02-02T04:51:10.685Z,0.7
2023-02-02T04:52:12.988Z,0.7
2023-02-02T04:53:15.314Z,0.7
2023-02-02T04:54:17.619Z,0.8
2023-02-02T04:55:20.977Z,0.7
2023-02-02T04:56:24.240Z,0.6
2023-02-02T04:57:27.494Z,0.6
2023-02-02T04:58:30.765Z,0.6
2023-02-02T04:59:34.094Z,0.8
2023-02-02T05:00:37.441Z,0.9
2023-02-02T05:01:40.650Z,0.8
2023-02-02T05:02:43.940Z,0.7
2023-02-02T05:03:47.220Z,0.8
2023-02-02T05:04:50.551Z,0.7
2023-02-02T05:05:53.933Z,0.9
2023-02-02T05:06:57.170Z,0.6
2023-02-02T05:07:59.432Z,0.7
2023-02-02T05:09:02.713Z,0.7
2023-02-02T05:10:06.002Z,0.7
2023-02-02T05:11:09.286Z,0.6
2023-02-02T05:12:12.660Z,0.8
2023-02-02T05:13:15.905Z,0.8
2023-02-02T05:14:19.205Z,0.8
2023-02-02T05:15:21.494Z,0.7
2023-02-02T05:16:23.900Z,0.6
2023-02-02T05:17:26.131Z,0.7
2023-02-02T05:18:28.447Z,0.9
2023-02-02T05:19:31.705Z,0.5
2023-02-02T05:20:35.020Z,0.8
2023-02-02T05:21:38.299Z,0.9
2023-02-02T05:22:41.675Z,0.9
2023-02-02T05:23:44.882Z,0.6
2023-02-02T05:24:48.159Z,0.8
2023-02-02T05:25:51.462Z,0.7
2023-02-02T05:26:54.754Z,0.7
2023-02-02T05:27:58.066Z,0.6
2023-02-02T05:29:01.359Z,0.7
2023-02-02T05:30:04.631Z,0.9
2023-02-02T05:31:07.901Z,0.6
2023-02-02T05:32:10.271Z,0.6
2023-02-02T05:33:13.516Z,0.8
2023-02-02T05:34:16.879Z,0.8
2023-02-02T05:35:20.215Z,0.7
2023-02-02T05:36:23.399Z,0.6
2023-02-02T05:37:26.739Z,0.7
2023-02-02T05:38:29.982Z,0.7
2023-02-02T05:39:32.369Z,0.8
2023-02-02T05:40:34.591Z,0.7
2023-02-02T05:41:37.913Z,0.7
2023-02-02T05:42:41.257Z,0.7
2023-02-02T05:43:43.502Z,0.7
2023-02-02T05:44:45.871Z,0.8
2023-02-02T05:45:49.100Z,0.6
2023-02-02T05:46:52.387Z,0.7
2023-02-02T05:47:55.696Z,0.6
2023-02-02T05:48:58.969Z,0.7
2023-02-02T05:50:02.271Z,0.5
2023-02-02T05:51:05.620Z,0.5
2023-02-02T05:52:08.854Z,0.5
2023-02-02T05:53:12.213Z,0.6
2023-02-02T05:54:15.443Z,0.7
2023-02-02T05:55:18.717Z,0.7
2023-02-02T05:56:22.017Z,0.6
2023-02-02T05:57:25.297Z,0.9
2023-02-02T05:58:27.616Z,0.8
2023-02-02T05:59:30.920Z,0.7
2023-02-02T06:00:34.204Z,0.8
2023-02-02T06:01:37.492Z,0.7
2023-02-02T06:02:40.846Z,0.7
2023-02-02T06:03:44.065Z,0.9
2023-02-02T06:04:47.349Z,0.7
2023-02-02T06:05:49.682Z,1
2023-02-02T06:06:52.010Z,0.7
2023-02-02T06:07:54.279Z,0.7
2023-02-02T06:08:56.595Z,0.9
2023-02-02T06:09:59.904Z,0.8
2023-02-02T06:11:03.206Z,0.8
2023-02-02T06:12:06.475Z,0.8
2023-02-02T06:13:09.791Z,0.9
2023-02-02T06:14:13.077Z,0.8
2023-02-02T06:15:16.372Z,0.9
2023-02-02T06:17:22.973Z,0.6
2023-02-02T06:18:26.233Z,0.7
2023-02-02T06:19:29.519Z,0.7
2023-02-02T06:20:32.825Z,0.7
2023-02-02T06:21:36.102Z,0.8
2023-02-02T06:22:38.475Z,0.7
2023-02-02T06:23:41.740Z,0.6
2023-02-02T06:24:44.989Z,0.6
2023-02-02T06:25:48.278Z,0.5
2023-02-02T06:26:51.583Z,0.5
2023-02-02T06:27:54.925Z,0.8
2023-02-02T06:28:58.281Z,0.5
2023-02-02T06:30:01.473Z,0.8
2023-02-02T06:31:03.770Z,0.7
2023-02-02T06:32:06.169Z,0.7
2023-02-02T06:33:08.400Z,0.7
2023-02-02T06:34:10.694Z,0.7
2023-02-02T06:35:13.980Z,0.8
2023-02-02T06:36:17.275Z,0.8
2023-02-02T06:37:20.600Z,0.7
2023-02-02T06:38:23.869Z,0.7
2023-02-02T06:39:27.158Z,0.8
2023-02-02T06:40:30.455Z,0.8
2023-02-02T06:41:33.765Z,0.8
2023-02-02T06:42:37.224Z,0.7
2023-02-02T06:43:40.548Z,0.5
2023-02-02T06:44:43.790Z,0.4
2023-02-02T06:45:47.177Z,0.6
2023-02-02T06:46:50.471Z,0.5
2023-02-02T06:47:52.695Z,0.7
2023-02-02T06:48:56.036Z,0.6
2023-02-02T06:49:59.280Z,0.5
2023-02-02T06:51:02.571Z,0.5
2023-02-02T06:52:05.862Z,0.6
2023-02-02T06:53:09.159Z,0.4
2023-02-02T06:54:12.469Z,0.5
2023-02-02T06:55:14.853Z,0.6
2023-02-02T06:56:17.083Z,0.4
2023-02-02T06:57:20.381Z,0.4
2023-02-02T06:58:23.667Z,0.7
2023-02-02T06:59:26.963Z,0.5
2023-02-02T07:00:30.234Z,0.7
2023-02-02T07:01:33.533Z,0.6
2023-02-02T07:02:37.389Z,0.4
2023-02-02T07:03:40.700Z,0.7
2023-02-02T07:04:43.988Z,0.6
2023-02-02T07:05:46.273Z,0.6
2023-02-02T07:06:49.584Z,0.5
2023-02-02T07:07:52.859Z,0.5
2023-02-02T07:08:56.159Z,0.7
2023-02-02T07:09:59.485Z,0.6
2023-02-02T07:11:02.752Z,0.8
2023-02-02T07:12:06.095Z,0.7
2023-02-02T07:13:09.382Z,0.8
2023-02-02T07:14:12.671Z,0.6
2023-02-02T07:15:15.891Z,0.5
2023-02-02T07:16:19.199Z,0.6
2023-02-02T07:17:21.525Z,0.4
2023-02-02T07:18:23.845Z,0.6
2023-02-02T07:19:26.179Z,0.5
2023-02-02T07:20:28.521Z,0.6
2023-02-02T07:21:30.752Z,0.5
2023-02-02T07:22:33.177Z,0.6
2023-02-02T07:23:36.449Z,0.6
2023-02-02T07:24:39.652Z,0.5
2023-02-02T07:25:43.660Z,0.8
2023-02-02T07:26:46.941Z,0.6
2023-02-02T07:27:50.227Z,0.6
2023-02-02T07:28:53.602Z,0.7
2023-02-02T07:29:56.888Z,0.5
2023-02-02T07:31:00.117Z,0.8
2023-02-02T07:32:03.397Z,0.5
2023-02-02T07:33:06.771Z,0.5
2023-02-02T07:34:10.001Z,0.5
2023-02-02T07:35:13.269Z,0.6
2023-02-02T07:36:15.612Z,0.5
2023-02-02T07:37:18.868Z,0.5
2023-02-02T07:38:22.188Z,0.5
2023-02-02T07:39:25.455Z,0.5
2023-02-02T07:40:28.748Z,0.5
2023-02-02T07:41:32.052Z,0.6
2023-02-02T07:42:35.377Z,0.6
2023-02-02T07:43:38.678Z,0.5
2023-02-02T07:44:41.013Z,0.5
2023-02-02T07:45:43.304Z,0.6
2023-02-02T07:46:45.553Z,0.6
2023-02-02T07:47:47.873Z,0.5
2023-02-02T07:48:51.173Z,0.7
2023-02-02T07:49:54.467Z,0.6
2023-02-02T07:50:57.910Z,0.6
2023-02-02T07:52:01.217Z,0.5
2023-02-02T07:53:04.319Z,0.7
2023-02-02T07:54:07.715Z,0.7
2023-02-02T07:55:10.900Z,0.7
2023-02-02T07:56:14.285Z,0.7
2023-02-02T07:57:17.503Z,0.7
2023-02-02T07:58:20.806Z,0.7
2023-02-02T07:59:24.071Z,0.7
2023-02-02T08:00:27.364Z,0.7
2023-02-02T08:01:29.672Z,0.5
2023-02-02T08:02:32.965Z,0.6
2023-02-02T08:03:36.278Z,0.4
2023-02-02T08:04:39.620Z,0.6
2023-02-02T08:05:42.898Z,0.2
2023-02-02T08:06:46.253Z,0.2
2023-02-02T08:08:52.721Z,0.4
2023-02-02T08:09:55.073Z,0.4
2023-02-02T08:10:57.327Z,0.5
2023-02-02T08:11:59.718Z,0.5
2023-02-02T08:13:02.187Z,0.4
2023-02-02T08:14:05.442Z,0.5
2023-02-02T08:15:08.570Z,0.7
2023-02-02T08:16:11.864Z,0.5
2023-02-02T08:17:15.141Z,0.4
2023-02-02T08:18:18.452Z,0.3
2023-02-02T08:19:21.719Z,0.5
2023-02-02T08:20:25.004Z,0.5
2023-02-02T08:21:28.325Z,0.8
2023-02-02T08:22:31.582Z,0.4
2023-02-02T08:23:34.877Z,0.4
2023-02-02T08:24:38.172Z,0.3
2023-02-02T08:25:41.491Z,0.6
2023-02-02T08:26:43.772Z,0.6
2023-02-02T08:27:47.089Z,0.3
2023-02-02T08:28:50.410Z,0.7
2023-02-02T08:29:53.710Z,0.8
2023-02-02T08:30:56.957Z,0.6
2023-02-02T08:32:00.377Z,0.6
2023-02-02T08:33:03.639Z,0.4
2023-02-02T08:34:05.973Z,0.5
2023-02-02T08:35:08.162Z,0.7
2023-02-02T08:36:10.469Z,0.6
2023-02-02T08:37:12.767Z,0.5
2023-02-02T08:38:16.064Z,0.5
2023-02-02T08:39:19.358Z,0.5
2023-02-02T08:40:22.805Z,0.6
2023-02-02T08:41:26.087Z,0.7
2023-02-02T08:42:29.324Z,0.5
2023-02-02T08:43:32.567Z,0.6
2023-02-02T08:44:35.817Z,0.4
2023-02-02T08:45:39.101Z,0.4
2023-02-02T08:46:42.453Z,0.6
2023-02-02T08:47:46.103Z,0.6
2023-02-02T08:48:49.006Z,0.4
2023-02-02T08:49:52.263Z,0.7
2023-02-02T08:50:54.570Z,0.5
2023-02-02T08:51:57.876Z,0.6
2023-02-02T08:53:01.166Z,0.7
2023-02-02T08:54:04.453Z,0.9
2023-02-02T08:55:07.751Z,0.8
2023-02-02T08:56:11.048Z,1
2023-02-02T08:57:14.327Z,0.7
2023-02-02T08:58:16.647Z,0.7
2023-02-02T08:59:18.958Z,0.6
2023-02-02T09:00:22.278Z,0.8
2023-02-02T09:01:25.537Z,1
2023-02-02T09:02:28.821Z,0.9
2023-02-02T09:03:32.111Z,0.7
2023-02-02T09:04:35.398Z,0.8
2023-02-02T09:05:38.696Z,0.9
2023-02-02T09:06:41.983Z,0.8
2023-02-02T09:07:45.486Z,0.8
2023-02-02T09:08:48.572Z,0.8
2023-02-02T09:09:51.866Z,0.8
2023-02-02T09:10:55.172Z,0.6
2023-02-02T09:11:58.460Z,0.9
2023-02-02T09:13:00.743Z,0.9
2023-02-02T09:14:04.065Z,0.7
2023-02-02T09:15:07.339Z,1
2023-02-02T09:16:10.649Z,1
2023-02-02T09:17:13.934Z,0.8
2023-02-02T09:18:17.222Z,0.6
2023-02-02T09:19:20.509Z,0.8
2023-02-02T09:20:22.826Z,0.6
2023-02-02T09:21:25.138Z,0.7
2023-02-02T09:22:27.457Z,0.7
2023-02-02T09:23:29.759Z,0.7
2023-02-02T09:24:32.066Z,0.7
2023-02-02T09:25:34.377Z,1
2023-02-02T09:26:38.289Z,0.8
2023-02-02T09:27:41.560Z,1
2023-02-02T09:28:44.860Z,1
2023-02-02T09:29:48.160Z,0.7
2023-02-02T09:30:51.440Z,0.9
2023-02-02T09:31:54.747Z,0.9
2023-02-02T09:32:58.031Z,0.9
2023-02-02T09:34:01.340Z,0.8
2023-02-02T09:35:04.757Z,0.9
2023-02-02T09:36:08.065Z,0.9
2023-02-02T09:37:11.281Z,0.9
2023-02-02T09:38:14.531Z,1.1
2023-02-02T09:39:16.823Z,0.8
2023-02-02T09:40:20.087Z,0.7
2023-02-02T09:41:23.507Z,0.9
2023-02-02T09:42:26.677Z,1
2023-02-02T09:43:29.964Z,0.9
2023-02-02T09:44:33.276Z,1
2023-02-02T09:45:36.548Z,1.2
2023-02-02T09:46:38.869Z,0.9
2023-02-02T09:47:41.371Z,1.1
2023-02-02T09:48:44.684Z,1
2023-02-02T09:49:47.976Z,1
2023-02-02T09:50:50.344Z,0.8
2023-02-02T09:51:52.655Z,1
2023-02-02T09:52:55.865Z,0.9
2023-02-02T09:53:59.167Z,0.8
2023-02-02T09:55:02.462Z,1
2023-02-02T09:56:05.760Z,0.9
2023-02-02T09:57:09.048Z,1
2023-02-02T09:58:12.337Z,0.9
2023-02-02T09:59:15.620Z,0.7
2023-02-02T10:00:18.910Z,0.9
2023-02-02T10:01:22.252Z,1
2023-02-02T10:02:25.513Z,1.1
2023-02-02T10:03:28.800Z,1.1
2023-02-02T10:04:32.080Z,0.8
2023-02-02T10:05:34.420Z,0.8
2023-02-02T10:06:38.515Z,1.1
2023-02-02T10:07:41.799Z,0.8
2023-02-02T10:08:45.115Z,0.9
2023-02-02T10:09:48.541Z,0.9
2023-02-02T10:10:51.776Z,1
2023-02-02T10:11:55.105Z,1
2023-02-02T10:12:57.480Z,1.1
2023-02-02T10:13:59.574Z,0.8
2023-02-02T10:15:01.956Z,0.7
2023-02-02T10:16:04.197Z,0.9
2023-02-02T10:17:07.496Z,0.9
2023-02-02T10:18:10.796Z,0.9
2023-02-02T10:19:14.087Z,1
2023-02-02T10:20:59.667Z,0.8
2023-02-02T10:22:02.969Z,1.1
2023-02-02T10:23:06.255Z,1.1
2023-02-02T10:24:09.566Z,0.9
2023-02-02T10:25:12.841Z,0.9
2023-02-02T10:26:16.157Z,1.1
2023-02-02T10:27:19.483Z,1.4
2023-02-02T10:28:22.724Z,1.1
2023-02-02T10:29:26.041Z,1
2023-02-02T10:30:29.301Z,1.1
2023-02-02T10:31:32.643Z,0.9
2023-02-02T10:32:35.900Z,4
2023-02-02T10:33:39.202Z,1.1
2023-02-02T10:34:42.475Z,1.4
2023-02-02T10:35:45.756Z,1.5
2023-02-02T10:36:49.091Z,1.5
2023-02-02T10:37:52.535Z,1.4
2023-02-02T10:38:55.784Z,1.4
2023-02-02T10:39:59.092Z,1.2
2023-02-02T10:41:02.226Z,1.1
2023-02-02T10:42:04.587Z,1.3
2023-02-02T10:43:06.843Z,1.2
2023-02-02T10:44:10.133Z,1.3
2023-02-02T10:45:13.450Z,1.2
2023-02-02T10:46:16.726Z,1.2
2023-02-02T10:47:20.021Z,1.2
2023-02-02T10:48:23.303Z,1.1
2023-02-02T10:49:26.664Z,1.4
2023-02-02T10:50:29.912Z,1.2
2023-02-02T10:51:33.183Z,0.9
2023-02-02T10:52:36.480Z,1.2
2023-02-02T10:53:39.781Z,1.1
2023-02-02T10:54:43.065Z,1
2023-02-02T10:55:46.355Z,1.1
2023-02-02T10:56:48.656Z,1.1
2023-02-02T10:57:51.935Z,1
2023-02-02T10:58:55.245Z,1
2023-02-02T10:59:58.519Z,1.1
2023-02-02T11:01:01.863Z,1
2023-02-02T11:02:05.105Z,1
2023-02-02T11:03:08.416Z,1
2023-02-02T11:04:10.745Z,1
2023-02-02T11:05:13.018Z,1
2023-02-02T11:06:15.353Z,1
2023-02-02T11:07:17.657Z,1.1
2023-02-02T11:08:20.951Z,0.7
2023-02-02T11:09:24.228Z,0.9
2023-02-02T11:10:27.519Z,0.8
2023-02-02T11:11:30.817Z,1
2023-02-02T11:12:34.151Z,1
2023-02-02T11:13:37.399Z,1
2023-02-02T11:14:40.696Z,0.9
2023-02-02T11:15:43.995Z,0.8
2023-02-02T11:16:47.268Z,1
2023-02-02T11:17:50.580Z,0.9
2023-02-02T11:18:53.853Z,0.8
2023-02-02T11:19:57.141Z,0.9
2023-02-02T11:20:59.467Z,0.9
2023-02-02T11:22:02.748Z,0.8
2023-02-02T11:23:06.057Z,0.7
2023-02-02T11:24:09.351Z,0.8
2023-02-02T11:25:12.695Z,0.8
2023-02-02T11:26:16.048Z,0.8
2023-02-02T11:27:19.377Z,0.8
2023-02-02T11:28:21.524Z,0.9
2023-02-02T11:29:23.864Z,0.7
2023-02-02T11:30:26.273Z,0.8
2023-02-02T11:31:28.471Z,0.8
2023-02-02T11:32:31.751Z,0.8
2023-02-02T11:33:35.051Z,0.9
2023-02-02T11:34:38.324Z,0.8
2023-02-02T11:35:41.657Z,0.7
2023-02-02T11:36:44.915Z,0.8
2023-02-02T11:37:48.237Z,0.8
2023-02-02T11:38:51.485Z,0.7
2023-02-02T11:39:54.777Z,0.8
2023-02-02T11:40:58.083Z,0.7
2023-02-02T11:42:01.378Z,0.8
2023-02-02T11:43:04.655Z,0.7
2023-02-02T11:44:07.950Z,0.7
2023-02-02T11:45:10.264Z,0.8
2023-02-02T11:46:13.566Z,0.7
2023-02-02T11:47:16.925Z,0.8
2023-02-02T11:48:20.150Z,0.6
2023-02-02T11:49:23.444Z,0.7
2023-02-02T11:50:26.729Z,0.7
2023-02-02T11:51:30.023Z,0.5
2023-02-02T11:52:32.334Z,0.6
2023-02-02T11:53:34.642Z,0.6
2023-02-02T11:54:36.952Z,0.7
2023-02-02T11:55:39.310Z,0.6
2023-02-02T11:56:42.555Z,0.7
2023-02-02T11:57:45.829Z,0.7
2023-02-02T11:58:49.138Z,0.7
2023-02-02T11:59:52.413Z,0.7
2023-02-02T12:00:55.711Z,0.6
2023-02-02T12:01:59.001Z,0.6
2023-02-02T12:03:02.313Z,0.6
2023-02-02T12:04:05.601Z,0.5
2023-02-02T12:05:08.891Z,0.8
2023-02-02T12:06:12.173Z,0.9
2023-02-02T12:07:15.471Z,0.6
2023-02-02T12:08:18.760Z,0.6
2023-02-02T12:09:21.106Z,0.7
2023-02-02T12:10:24.359Z,0.7
2023-02-02T12:11:27.644Z,0.7
2023-02-02T12:12:30.932Z,0.7
2023-02-02T12:13:34.244Z,0.6
2023-02-02T12:14:37.559Z,0.6
2023-02-02T12:15:40.810Z,0.6
2023-02-02T12:16:43.136Z,0.5
2023-02-02T12:17:45.461Z,0.7
2023-02-02T12:18:48.731Z,0.6
2023-02-02T12:19:52.065Z,0.6
2023-02-02T12:20:54.383Z,0.7
2023-02-02T12:21:56.657Z,0.6
2023-02-02T12:22:59.938Z,0.7
2023-02-02T12:24:03.274Z,0.6
2023-02-02T12:25:06.515Z,0.6
2023-02-02T12:26:09.823Z,0.8
2023-02-02T12:27:13.105Z,0.7
2023-02-02T12:28:16.398Z,0.6
2023-02-02T12:29:19.696Z,0.7
2023-02-02T12:30:22.978Z,0.5
2023-02-02T12:31:26.272Z,0.6
2023-02-02T12:32:29.568Z,0.6
2023-02-02T12:33:32.850Z,0.6
2023-02-02T12:34:36.176Z,0.6
2023-02-02T12:35:38.452Z,0.6
2023-02-02T12:36:41.751Z,0.9
2023-02-02T12:37:45.056Z,0.6
2023-02-02T12:38:48.337Z,0.7
2023-02-02T12:39:51.620Z,0.7
2023-02-02T12:40:54.923Z,0.5
2023-02-02T12:41:58.196Z,0.6
2023-02-02T12:43:00.539Z,0.6
2023-02-02T12:44:02.841Z,0.6
2023-02-02T12:45:05.155Z,0.6
2023-02-02T12:46:07.451Z,0.6
2023-02-02T12:47:10.726Z,0.6
2023-02-02T12:48:14.036Z,0.7
2023-02-02T12:49:17.328Z,0.5
2023-02-02T12:50:20.629Z,0.6
2023-02-02T12:51:23.948Z,0.5
2023-02-02T12:52:27.185Z,0.7
2023-02-02T12:53:30.484Z,0.6
2023-02-02T12:54:33.829Z,0.6
2023-02-02T12:55:37.078Z,0.5
2023-02-02T12:56:40.397Z,0.5
2023-02-02T12:57:43.665Z,0.5
2023-02-02T12:58:46.961Z,0.6
2023-02-02T12:59:49.257Z,0.5
2023-02-02T13:00:52.558Z,0.6
2023-02-02T13:01:55.849Z,0.6
2023-02-02T13:02:59.141Z,0.6
2023-02-02T13:04:02.425Z,0.5
2023-02-02T13:05:05.719Z,0.6
2023-02-02T13:06:09.016Z,0.6
2023-02-02T13:07:11.348Z,0.5
2023-02-02T13:08:13.695Z,0.5
2023-02-02T13:09:15.949Z,0.6
2023-02-02T13:10:18.252Z,0.6
2023-02-02T13:11:21.551Z,0.5
2023-02-02T13:12:24.826Z,0.5
2023-02-02T13:13:28.117Z,0.6
2023-02-02T13:14:31.410Z,0.6
2023-02-02T13:15:34.716Z,0.6
2023-02-02T13:16:38.002Z,0.6
2023-02-02T13:17:41.292Z,0.6
2023-02-02T13:18:44.569Z,0.5
2023-02-02T13:19:47.872Z,0.6
2023-02-02T13:20:51.162Z,0.7
2023-02-02T13:21:54.467Z,0.7
2023-02-02T13:22:57.749Z,0.5
2023-02-02T13:24:00.225Z,0.6
2023-02-02T13:25:03.374Z,0.6
2023-02-02T13:26:06.746Z,0.5
2023-02-02T13:27:10.091Z,0.5
2023-02-02T13:28:13.382Z,0.5
2023-02-02T13:29:16.530Z,0.6
2023-02-02T13:30:19.817Z,0.5
2023-02-02T13:31:22.122Z,0.5
2023-02-02T13:32:24.493Z,0.6
2023-02-02T13:33:26.741Z,0.6
2023-02-02T13:34:29.085Z,0.6
2023-02-02T13:35:32.327Z,0.5
2023-02-02T13:36:35.635Z,0.6
2023-02-02T13:37:38.919Z,0.6
2023-02-02T13:38:42.227Z,0.6
2023-02-02T13:39:45.515Z,0.6
2023-02-02T13:40:48.802Z,0.6
2023-02-02T13:41:52.099Z,0.6
2023-02-02T13:42:55.391Z,0.7
2023-02-02T13:43:58.686Z,0.7
2023-02-02T13:45:01.975Z,0.7
2023-02-02T13:46:05.271Z,0.7
2023-02-02T13:47:08.573Z,0.5
2023-02-02T13:48:10.869Z,0.5
2023-02-02T13:49:14.175Z,0.5
2023-02-02T13:50:17.433Z,0.6
2023-02-02T13:51:20.737Z,0.7
2023-02-02T13:52:23.202Z,0.6
2023-02-02T13:53:26.503Z,0.6
2023-02-02T13:54:29.696Z,0.5
2023-02-02T13:55:32.104Z,0.6
2023-02-02T13:56:34.354Z,0.4
2023-02-02T13:57:36.682Z,0.6
2023-02-02T13:58:38.869Z,0.7
2023-02-02T13:59:42.158Z,0.6
2023-02-02T14:00:45.467Z,0.7
2023-02-02T14:01:48.744Z,0.5
2023-02-02T14:02:52.072Z,0.7
2023-02-02T14:03:55.340Z,0.7
2023-02-02T14:04:58.626Z,0.5
2023-02-02T14:06:01.922Z,0.7
2023-02-02T14:07:05.331Z,0.5
2023-02-02T14:08:08.510Z,0.6
2023-02-02T14:09:11.788Z,0.7
2023-02-02T14:10:15.085Z,0.5
2023-02-02T14:11:18.391Z,0.7
2023-02-02T14:12:20.685Z,0.7
2023-02-02T14:13:23.962Z,0.6
2023-02-02T14:14:27.292Z,0.7
2023-02-02T14:15:30.561Z,0.7
2023-02-02T14:16:33.849Z,0.6
2023-02-02T14:17:37.137Z,0.6
2023-02-02T14:18:40.437Z,0.7
2023-02-02T14:19:42.741Z,0.5
2023-02-02T14:20:45.077Z,0.7
2023-02-02T14:21:47.370Z,0.7
2023-02-02T14:22:49.690Z,0.6
2023-02-02T14:23:52.968Z,0.6
2023-02-02T14:24:56.280Z,0.6
2023-02-02T14:25:59.574Z,0.6
2023-02-02T14:27:02.843Z,0.7
2023-02-02T14:28:06.133Z,0.6
2023-02-02T14:29:09.461Z,0.7
2023-02-02T14:30:12.731Z,0.7
2023-02-02T14:31:16.007Z,0.6
2023-02-02T14:32:19.304Z,0.5
2023-02-02T14:33:22.587Z,0.7
2023-02-02T14:34:25.883Z,0.6
2023-02-02T14:35:29.186Z,0.5
2023-02-02T14:36:31.494Z,0.7
2023-02-02T14:37:34.891Z,0.5